Time;durP1;ratioP1;P1;durP2;ratioP2;P2;SDS_P1;SDS_P2;PMS_P1;PMS_P2;Temp;Humidity;BMP_temperature;BMP_pressure;BME280_temperature;BME280_humidity;BME280_pressure;Samples;Min_cycle;Max_cycle;Signal;HPM_P1;HPM_P2
2021/07/03 00:00:25;;;;;;;11.20;9.60;;;16.00;99.90;;;;;;5022410;28;20463;-76
2021/07/03 00:02:54;;;;;;;16.30;10.70;;;16.00;99.90;;;;;;5031875;28;20419;-76
2021/07/03 00:05:20;;;;;;;14.60;10.73;;;16.00;99.90;;;;;;5027249;28;20432;-76
2021/07/03 00:07:47;;;;;;;12.57;9.70;;;16.00;99.90;;;;;;5024976;28;20461;-75
2021/07/03 00:10:15;;;;;;;13.07;10.80;;;16.00;99.90;;;;;;5018849;28;20466;-76
2021/07/03 00:12:42;;;;;;;14.30;9.63;;;16.00;99.90;;;;;;5016357;28;20812;-75
2021/07/03 00:15:14;;;;;;;13.63;10.03;;;16.00;99.90;;;;;;5030739;28;20489;-75
2021/07/03 00:17:41;;;;;;;12.17;9.50;;;16.00;99.90;;;;;;5031440;28;20445;-76
2021/07/03 00:20:12;;;;;;;12.43;9.90;;;16.00;99.90;;;;;;5029732;28;20478;-75
2021/07/03 00:22:39;;;;;;;11.63;10.37;;;16.00;99.90;;;;;;5028680;28;20457;-76
2021/07/03 00:25:07;;;;;;;12.20;9.50;;;16.00;99.90;;;;;;5014217;28;20433;-76
2021/07/03 00:27:34;;;;;;;12.97;10.10;;;16.00;99.90;;;;;;5026130;28;20439;-75
2021/07/03 00:30:01;;;;;;;11.80;10.20;;;16.00;99.90;;;;;;5030733;28;20448;-76
2021/07/03 00:32:28;;;;;;;10.77;9.70;;;16.00;99.90;;;;;;5023634;28;20450;-75
2021/07/03 00:34:55;;;;;;;13.57;10.33;;;16.00;99.90;;;;;;5031382;28;20485;-75
2021/07/03 00:37:24;;;;;;;11.03;9.23;;;16.00;99.90;;;;;;5021598;28;20458;-76
2021/07/03 00:39:51;;;;;;;13.10;10.30;;;16.00;99.90;;;;;;5016724;28;20433;-76
2021/07/03 00:42:18;;;;;;;12.77;10.17;;;16.00;99.90;;;;;;5010025;28;20890;-76
2021/07/03 00:44:45;;;;;;;12.20;10.97;;;16.00;99.90;;;;;;5015007;28;20451;-76
2021/07/03 00:47:12;;;;;;;15.10;11.27;;;16.00;99.90;;;;;;5031506;28;20415;-75
2021/07/03 00:49:39;;;;;;;13.07;11.23;;;15.90;99.90;;;;;;5031737;28;20433;-76
2021/07/03 00:52:08;;;;;;;14.80;11.03;;;15.90;99.90;;;;;;5019967;28;21003;-75
2021/07/03 00:54:37;;;;;;;13.03;10.53;;;15.90;99.90;;;;;;5019714;28;20798;-76
2021/07/03 00:57:06;;;;;;;12.23;9.97;;;15.90;99.90;;;;;;5027245;28;20464;-75
2021/07/03 00:59:35;;;;;;;14.40;10.57;;;15.90;99.90;;;;;;5029960;28;20462;-75
2021/07/03 01:02:02;;;;;;;11.90;10.20;;;15.90;99.90;;;;;;5027426;28;20493;-75
2021/07/03 01:04:30;;;;;;;10.80;9.70;;;15.90;99.90;;;;;;5018676;28;20437;-76
2021/07/03 01:06:57;;;;;;;12.70;11.00;;;15.90;99.90;;;;;;5033216;28;20419;-76
2021/07/03 01:09:24;;;;;;;12.63;11.30;;;15.90;99.90;;;;;;5019539;28;20453;-76
2021/07/03 01:11:53;;;;;;;12.20;10.13;;;15.90;99.90;;;;;;5032855;28;20970;-75
2021/07/03 01:14:20;;;;;;;12.97;11.30;;;15.90;99.90;;;;;;5021696;28;20454;-74
2021/07/03 01:16:48;;;;;;;12.83;9.70;;;15.80;99.90;;;;;;5016662;28;20486;-76
2021/07/03 01:19:15;;;;;;;13.03;10.93;;;15.80;99.90;;;;;;5012382;28;20466;-76
2021/07/03 01:21:48;;;;;;;14.83;10.80;;;15.80;99.90;;;;;;5019966;28;20474;-76
2021/07/03 01:24:14;;;;;;;12.10;10.00;;;15.80;99.90;;;;;;5028858;28;20468;-75
2021/07/03 01:26:42;;;;;;;12.10;10.77;;;15.80;99.90;;;;;;5031452;28;20461;-75
2021/07/03 01:29:10;;;;;;;13.03;10.77;;;15.80;99.90;;;;;;5025571;28;20462;-75
2021/07/03 01:31:40;;;;;;;13.23;11.03;;;15.80;99.90;;;;;;5028987;28;20459;-76
2021/07/03 01:34:07;;;;;;;13.07;11.07;;;15.70;99.90;;;;;;5019707;28;20435;-76
2021/07/03 01:36:34;;;;;;;14.00;10.70;;;15.70;99.90;;;;;;5012536;28;20514;-76
2021/07/03 01:39:02;;;;;;;12.73;10.50;;;15.70;99.90;;;;;;5010344;28;20450;-76
2021/07/03 01:41:29;;;;;;;11.87;10.63;;;15.70;99.90;;;;;;5012742;28;20835;-75
2021/07/03 01:43:56;;;;;;;11.73;10.23;;;15.70;99.90;;;;;;5010908;28;20434;-75
2021/07/03 01:46:23;;;;;;;11.67;10.40;;;15.70;99.90;;;;;;5018751;28;20454;-75
2021/07/03 01:48:50;;;;;;;11.73;10.53;;;15.60;99.90;;;;;;5032323;28;20953;-75
2021/07/03 01:51:17;;;;;;;11.70;10.03;;;15.60;99.90;;;;;;5029166;28;20978;-76
2021/07/03 01:53:44;;;;;;;17.03;11.20;;;15.60;99.90;;;;;;5015548;28;20466;-75
2021/07/03 01:56:12;;;;;;;15.87;11.90;;;15.60;99.90;;;;;;5012136;28;20482;-75
2021/07/03 01:58:39;;;;;;;12.23;10.93;;;15.60;99.90;;;;;;5009700;28;20469;-75
2021/07/03 02:01:06;;;;;;;15.50;10.50;;;15.50;99.90;;;;;;5011927;28;20529;-75
2021/07/03 02:03:33;;;;;;;11.73;10.40;;;15.50;99.90;;;;;;5022707;28;20819;-75
2021/07/03 02:06:03;;;;;;;14.80;12.20;;;15.50;99.90;;;;;;5031736;28;20453;-75
2021/07/03 02:08:31;;;;;;;16.00;12.80;;;15.50;99.90;;;;;;5024825;28;20453;-75
2021/07/03 02:10:58;;;;;;;14.50;11.17;;;15.50;99.90;;;;;;5011071;28;20521;-75
2021/07/03 02:13:27;;;;;;;13.13;11.10;;;15.40;99.90;;;;;;5012777;28;20945;-75
2021/07/03 02:15:54;;;;;;;12.80;11.23;;;15.40;99.90;;;;;;5014181;28;20502;-75
2021/07/03 02:18:21;;;;;;;14.83;10.80;;;15.40;99.90;;;;;;5013626;28;20480;-75
2021/07/03 02:20:49;;;;;;;16.17;11.77;;;15.40;99.90;;;;;;5027737;28;20476;-75
2021/07/03 02:23:17;;;;;;;12.83;10.33;;;15.40;99.90;;;;;;5018021;28;20698;-76
2021/07/03 02:25:45;;;;;;;12.87;11.43;;;15.40;99.90;;;;;;5009321;28;20444;-74
2021/07/03 02:28:12;;;;;;;14.30;11.80;;;15.40;99.90;;;;;;5013927;28;20876;-76
2021/07/03 02:30:41;;;;;;;24.23;12.03;;;15.40;99.90;;;;;;5011755;28;20557;-74
2021/07/03 02:33:08;;;;;;;15.13;11.60;;;15.40;99.90;;;;;;5014054;28;20454;-76
2021/07/03 02:35:35;;;;;;;14.47;11.27;;;15.40;99.90;;;;;;5012973;28;20464;-75
2021/07/03 02:38:02;;;;;;;14.27;11.63;;;15.40;99.90;;;;;;5015266;28;20441;-76
2021/07/03 02:40:29;;;;;;;17.20;12.47;;;15.30;99.90;;;;;;5009284;28;20894;-76
2021/07/03 02:42:56;;;;;;;14.30;10.30;;;15.30;99.90;;;;;;5009207;28;20450;-75
2021/07/03 02:45:24;;;;;;;12.57;11.27;;;15.30;99.90;;;;;;5020379;28;20457;-75
2021/07/03 02:47:52;;;;;;;15.40;10.90;;;15.30;99.90;;;;;;5029642;28;20942;-76
2021/07/03 02:50:20;;;;;;;14.43;12.10;;;15.20;99.90;;;;;;5025939;28;20487;-76
2021/07/03 02:52:47;;;;;;;15.53;10.43;;;15.20;99.90;;;;;;5010474;28;20536;-75
2021/07/03 02:55:15;;;;;;;15.17;10.50;;;15.20;99.90;;;;;;5010725;28;20898;-75
2021/07/03 02:57:42;;;;;;;17.10;10.83;;;15.20;99.90;;;;;;5011091;28;20455;-75
2021/07/03 03:00:12;;;;;;;13.30;10.37;;;15.20;99.90;;;;;;5021992;28;20800;-75
2021/07/03 03:02:38;;;;;;;18.67;11.70;;;15.20;99.90;;;;;;5024032;28;20492;-75
2021/07/03 03:05:09;;;;;;;12.97;10.60;;;15.10;99.90;;;;;;5029225;28;20448;-76
2021/07/03 03:07:36;;;;;;;12.93;10.40;;;15.10;99.90;;;;;;5029650;28;20454;-75
2021/07/03 03:10:05;;;;;;;11.03;9.90;;;15.10;99.90;;;;;;5029098;28;20465;-75
2021/07/03 03:12:33;;;;;;;12.90;10.87;;;15.10;99.90;;;;;;5030068;28;20454;-75
2021/07/03 03:15:00;;;;;;;12.37;11.10;;;15.10;99.90;;;;;;5029584;28;20460;-75
2021/07/03 03:17:27;;;;;;;14.70;10.80;;;15.10;99.90;;;;;;5020624;28;20501;-75
2021/07/03 03:19:54;;;;;;;13.40;11.37;;;15.10;99.90;;;;;;5014277;28;20570;-75
2021/07/03 03:22:22;;;;;;;18.27;11.70;;;15.10;99.90;;;;;;5008352;28;21013;-74
2021/07/03 03:24:49;;;;;;;13.27;10.20;;;15.00;99.90;;;;;;5010758;28;20877;-75
2021/07/03 03:27:16;;;;;;;13.57;11.17;;;15.00;99.90;;;;;;5012537;28;20462;-75
2021/07/03 03:29:43;;;;;;;18.30;12.50;;;15.00;99.90;;;;;;5013286;28;20461;-76
2021/07/03 03:32:10;;;;;;;12.97;10.83;;;15.00;99.90;;;;;;5019778;28;20465;-75
2021/07/03 03:34:36;;;;;;;13.03;11.10;;;15.00;99.90;;;;;;5015644;28;20444;-75
2021/07/03 03:37:04;;;;;;;12.87;11.30;;;15.00;99.90;;;;;;5017333;28;20498;-75
2021/07/03 03:39:32;;;;;;;14.27;11.80;;;15.00;99.90;;;;;;5018178;28;20796;-75
2021/07/03 03:41:59;;;;;;;16.37;11.97;;;14.90;99.90;;;;;;5012197;28;20712;-74
2021/07/03 03:44:26;;;;;;;16.37;11.80;;;14.90;99.90;;;;;;5029524;28;20464;-76
2021/07/03 03:46:53;;;;;;;14.53;11.97;;;14.90;99.90;;;;;;5031518;28;20441;-76
2021/07/03 03:49:20;;;;;;;17.67;11.73;;;14.90;99.90;;;;;;5025470;28;20466;-75
2021/07/03 03:51:47;;;;;;;14.00;11.70;;;14.90;99.90;;;;;;5033580;28;20461;-75
2021/07/03 03:54:15;;;;;;;16.17;11.40;;;14.90;99.90;;;;;;5030043;28;20555;-75
2021/07/03 03:56:43;;;;;;;18.10;11.20;;;14.90;99.90;;;;;;5033613;28;20493;-75
2021/07/03 03:59:11;;;;;;;13.40;11.47;;;15.00;99.90;;;;;;5022769;28;20452;-74
2021/07/03 04:01:38;;;;;;;17.77;11.57;;;15.00;99.90;;;;;;5020444;28;20465;-74
2021/07/03 04:04:06;;;;;;;15.47;11.50;;;15.00;99.90;;;;;;5031507;28;20449;-75
2021/07/03 04:06:33;;;;;;;14.40;12.90;;;15.10;99.90;;;;;;5030577;28;20453;-75
2021/07/03 04:09:00;;;;;;;12.97;11.07;;;15.10;99.90;;;;;;5031038;28;20442;-75
2021/07/03 04:11:27;;;;;;;15.37;12.10;;;15.10;99.90;;;;;;5031097;28;20966;-75
2021/07/03 04:13:55;;;;;;;15.00;11.97;;;15.20;99.90;;;;;;5034439;28;20437;-75
2021/07/03 04:16:22;;;;;;;12.83;10.87;;;15.20;99.90;;;;;;5028270;28;20474;-75
2021/07/03 04:18:49;;;;;;;13.50;11.80;;;15.30;99.90;;;;;;5014565;28;20438;-75
2021/07/03 04:21:16;;;;;;;12.40;10.67;;;15.30;99.90;;;;;;5016153;28;20480;-75
2021/07/03 04:23:43;;;;;;;15.10;10.33;;;15.30;99.90;;;;;;5018143;28;20967;-76
2021/07/03 04:26:10;;;;;;;11.00;9.90;;;15.30;99.90;;;;;;5010825;28;20418;-76
2021/07/03 04:28:37;;;;;;;10.13;8.83;;;15.40;99.90;;;;;;5011594;28;20959;-75
2021/07/03 04:31:05;;;;;;;12.93;9.33;;;15.40;99.90;;;;;;5014231;28;20483;-76
2021/07/03 04:33:32;;;;;;;11.70;9.40;;;15.40;99.90;;;;;;5019701;28;20450;-75
2021/07/03 04:35:58;;;;;;;11.67;8.90;;;15.50;99.90;;;;;;5022853;28;20486;-75
2021/07/03 04:38:25;;;;;;;12.63;9.57;;;15.50;99.90;;;;;;5018291;28;20430;-75
2021/07/03 04:40:52;;;;;;;12.30;9.53;;;15.50;99.90;;;;;;5013670;28;20445;-76
2021/07/03 04:43:19;;;;;;;11.00;9.50;;;15.50;99.90;;;;;;5025016;28;20460;-75
2021/07/03 04:45:46;;;;;;;11.93;10.07;;;15.60;99.90;;;;;;5031278;28;20777;-75
2021/07/03 04:48:15;;;;;;;9.63;8.50;;;15.60;99.90;;;;;;5022750;28;20797;-75
2021/07/03 04:50:42;;;;;;;11.23;9.77;;;15.70;99.90;;;;;;5008551;28;20546;-75
2021/07/03 04:53:09;;;;;;;9.23;7.83;;;15.70;99.90;;;;;;5017557;28;20434;-75
2021/07/03 04:55:36;;;;;;;10.07;8.97;;;15.80;99.90;;;;;;5014102;28;20801;-75
2021/07/03 04:58:03;;;;;;;11.23;9.30;;;15.90;99.90;;;;;;5011115;28;21331;-76
2021/07/03 05:00:30;;;;;;;9.93;8.67;;;15.90;99.90;;;;;;5013060;28;20486;-74
2021/07/03 05:02:57;;;;;;;9.60;8.60;;;16.00;99.90;;;;;;5012175;28;20432;-75
2021/07/03 05:05:25;;;;;;;10.23;8.80;;;16.00;99.90;;;;;;5018355;28;20470;-75
2021/07/03 05:07:52;;;;;;;9.47;8.43;;;16.00;99.90;;;;;;5017883;28;20436;-75
2021/07/03 05:10:20;;;;;;;10.30;9.30;;;16.00;99.90;;;;;;5027938;28;20445;-76
2021/07/03 05:12:47;;;;;;;9.10;8.20;;;16.00;99.90;;;;;;5030110;28;20442;-76
2021/07/03 05:15:13;;;;;;;9.53;8.53;;;16.10;99.90;;;;;;5027206;28;20469;-75
2021/07/03 05:17:40;;;;;;;12.00;8.43;;;16.10;99.90;;;;;;5025829;28;20483;-75
2021/07/03 05:20:08;;;;;;;9.30;8.40;;;16.10;99.90;;;;;;5033042;28;20436;-75
2021/07/03 05:22:37;;;;;;;8.43;7.27;;;16.20;99.90;;;;;;5031305;28;20560;-75
2021/07/03 05:25:04;;;;;;;9.63;7.90;;;16.30;99.90;;;;;;5027789;28;20456;-75
2021/07/03 05:27:31;;;;;;;9.53;7.40;;;16.40;99.90;;;;;;5015294;28;20922;-75
2021/07/03 05:29:58;;;;;;;8.37;7.27;;;16.50;99.90;;;;;;5016537;28;20941;-75
2021/07/03 05:32:25;;;;;;;9.43;7.80;;;16.70;99.90;;;;;;5014719;28;20875;-76
2021/07/03 05:34:52;;;;;;;7.33;6.63;;;16.90;99.90;;;;;;5021291;28;20465;-75
2021/07/03 05:37:19;;;;;;;7.70;7.00;;;17.20;99.90;;;;;;5014303;28;20509;-75
2021/07/03 05:39:47;;;;;;;8.63;7.83;;;17.50;99.90;;;;;;5019773;28;20535;-75
2021/07/03 05:42:14;;;;;;;9.13;6.90;;;18.00;99.90;;;;;;5022921;28;20435;-76
2021/07/03 05:44:41;;;;;;;10.07;8.33;;;18.30;99.90;;;;;;5015236;28;20940;-76
2021/07/03 05:47:08;;;;;;;9.20;7.80;;;18.80;99.90;;;;;;5013264;28;20462;-76
2021/07/03 05:49:35;;;;;;;12.17;8.60;;;19.10;99.90;;;;;;5013878;28;20461;-76
2021/07/03 05:52:02;;;;;;;9.90;7.30;;;19.30;99.90;;;;;;5014652;28;20458;-76
2021/07/03 05:54:31;;;;;;;8.70;7.60;;;19.50;99.90;;;;;;5012290;28;20503;-76
2021/07/03 05:56:59;;;;;;;8.57;7.50;;;19.70;99.90;;;;;;5009981;28;20602;-75
2021/07/03 05:59:26;;;;;;;9.13;7.63;;;19.90;99.90;;;;;;5010294;28;21437;-77
2021/07/03 06:01:53;;;;;;;7.50;6.70;;;20.00;99.90;;;;;;5023203;28;20827;-77
2021/07/03 06:04:20;;;;;;;7.83;7.13;;;20.30;99.90;;;;;;5032457;28;20446;-77
2021/07/03 06:06:47;;;;;;;8.67;7.80;;;20.50;99.90;;;;;;5023128;28;20458;-76
2021/07/03 06:09:14;;;;;;;9.97;7.47;;;20.90;99.90;;;;;;5012441;28;20450;-77
2021/07/03 06:11:41;;;;;;;8.20;7.40;;;21.00;99.90;;;;;;5014691;28;21427;-76
2021/07/03 06:14:09;;;;;;;10.97;7.27;;;21.30;99.90;;;;;;5015690;28;20854;-76
2021/07/03 06:16:36;;;;;;;7.50;6.50;;;21.50;99.90;;;;;;5009105;28;20487;-77
2021/07/03 06:19:03;;;;;;;7.07;6.37;;;21.80;99.90;;;;;;5024324;28;20870;-77
2021/07/03 06:21:35;;;;;;;7.77;6.97;;;22.10;99.90;;;;;;5021036;28;20479;-77
2021/07/03 06:24:01;;;;;;;9.33;7.20;;;22.60;99.90;;;;;;5012409;28;20947;-76
2021/07/03 06:26:28;;;;;;;8.10;7.40;;;23.20;99.90;;;;;;5018030;28;20797;-77
2021/07/03 06:28:55;;;;;;;7.03;6.43;;;23.50;99.90;;;;;;5012482;28;20435;-78
2021/07/03 06:31:24;;;;;;;7.40;6.70;;;23.80;99.90;;;;;;5008875;28;20478;-75
2021/07/03 06:33:51;;;;;;;9.90;6.93;;;24.10;99.90;;;;;;5006327;28;20442;-76
2021/07/03 06:36:19;;;;;;;7.33;6.60;;;24.60;99.90;;;;;;5018182;28;20850;-79
2021/07/03 06:38:46;;;;;;;9.10;7.37;;;24.80;99.90;;;;;;5018904;28;20446;-76
2021/07/03 06:41:13;;;;;;;9.10;6.33;;;25.10;99.90;;;;;;5026663;28;20454;-76
2021/07/03 06:43:40;;;;;;;11.87;6.23;;;25.20;99.90;;;;;;5010871;28;20505;-76
2021/07/03 06:46:07;;;;;;;7.70;6.47;;;25.30;99.90;;;;;;5007542;28;20450;-76
2021/07/03 06:48:35;;;;;;;7.40;6.43;;;25.40;99.90;;;;;;5011790;28;20465;-76
2021/07/03 06:51:02;;;;;;;7.10;6.40;;;25.50;99.90;;;;;;5013340;28;20461;-77
2021/07/03 06:53:29;;;;;;;6.60;5.93;;;25.50;99.90;;;;;;5019687;28;20470;-77
2021/07/03 06:55:56;;;;;;;8.70;6.60;;;25.50;99.90;;;;;;5009010;28;20462;-77
2021/07/03 06:58:23;;;;;;;7.60;6.23;;;25.50;99.90;;;;;;5005704;28;21032;-77
2021/07/03 07:00:50;;;;;;;6.80;6.10;;;25.40;99.90;;;;;;5011201;28;20482;-77
2021/07/03 07:03:17;;;;;;;7.40;6.43;;;25.40;99.90;;;;;;5027500;28;20434;-77
2021/07/03 07:05:45;;;;;;;8.00;5.90;;;25.50;99.90;;;;;;5027590;28;20500;-76
2021/07/03 07:08:12;;;;;;;6.73;6.03;;;25.60;99.90;;;;;;5015514;28;20455;-76
2021/07/03 07:10:39;;;;;;;6.53;5.87;;;25.70;99.90;;;;;;5014224;28;20471;-78
2021/07/03 07:13:07;;;;;;;6.77;6.00;;;25.70;99.90;;;;;;5016565;28;21142;-74
2021/07/03 07:15:34;;;;;;;6.03;5.53;;;;;;;;;;5029451;28;20449;-76
2021/07/03 07:18:02;;;;;;;6.77;5.80;;;;;;;;;;5026977;28;20489;-76
2021/07/03 07:20:28;;;;;;;6.63;5.83;;;26.60;99.90;;;;;;5009491;28;20488;-76
2021/07/03 07:22:57;;;;;;;6.37;5.77;;;26.70;99.90;;;;;;5013837;28;20791;-76
2021/07/03 07:25:24;;;;;;;5.77;5.27;;;26.90;99.90;;;;;;5022294;28;20458;-76
2021/07/03 07:27:51;;;;;;;6.00;5.50;;;27.30;99.90;;;;;;5015863;28;20431;-76
2021/07/03 07:30:19;;;;;;;6.10;5.50;;;27.70;99.90;;;;;;5022111;28;20485;-76
2021/07/03 07:32:46;;;;;;;7.00;6.10;;;;;;;;;;5024895;28;20504;-76
2021/07/03 07:35:14;;;;;;;6.00;5.40;;;28.60;99.90;;;;;;5021081;28;20488;-75
2021/07/03 07:37:41;;;;;;;6.73;5.80;;;29.20;99.90;;;;;;5018977;28;20505;-76
2021/07/03 07:40:11;;;;;;;7.40;5.80;;;29.60;99.90;;;;;;5018028;28;20461;-75
2021/07/03 07:42:39;;;;;;;6.33;5.73;;;30.20;99.90;;;;;;5015204;28;20946;-76
2021/07/03 07:45:07;;;;;;;6.30;5.70;;;30.40;99.90;;;;;;5016819;28;20451;-76
2021/07/03 07:47:34;;;;;;;7.80;6.30;;;30.80;99.90;;;;;;5020993;28;20435;-77
2021/07/03 07:50:01;;;;;;;5.90;5.30;;;31.10;99.90;;;;;;5013267;28;20980;-76
2021/07/03 07:52:28;;;;;;;6.00;5.40;;;31.40;99.90;;;;;;5020705;28;20458;-76
2021/07/03 07:54:55;;;;;;;6.00;5.50;;;31.70;99.90;;;;;;5013603;28;20493;-76
2021/07/03 07:57:23;;;;;;;6.20;5.60;;;31.80;99.90;;;;;;5011441;28;20479;-76
2021/07/03 07:59:50;;;;;;;6.17;5.67;;;32.00;99.90;;;;;;5022833;28;20453;-76
2021/07/03 08:02:17;;;;;;;8.43;6.10;;;32.30;99.90;;;;;;5022218;28;20485;-76
2021/07/03 08:04:44;;;;;;;6.60;5.97;;;32.40;99.90;;;;;;5026140;28;20434;-75
2021/07/03 08:07:11;;;;;;;7.30;6.00;;;32.50;99.90;;;;;;5010178;28;20461;-76
2021/07/03 08:09:38;;;;;;;7.57;6.07;;;32.60;99.90;;;;;;5015761;28;20826;-76
2021/07/03 08:12:05;;;;;;;6.27;5.67;;;32.90;99.90;;;;;;5026119;28;20446;-76
2021/07/03 08:14:34;;;;;;;5.57;5.10;;;32.80;99.90;;;;;;5023274;28;20458;-77
2021/07/03 08:17:01;;;;;;;8.03;5.60;;;32.90;99.90;;;;;;5027810;28;20795;-76
2021/07/03 08:19:27;;;;;;;7.43;5.63;;;33.30;99.90;;;;;;5016231;28;20466;-76
2021/07/03 08:21:57;;;;;;;5.60;5.10;;;33.40;99.90;;;;;;5010793;28;20455;-76
2021/07/03 08:24:24;;;;;;;5.60;5.10;;;33.40;99.90;;;;;;5014767;28;20449;-77
2021/07/03 08:26:51;;;;;;;7.33;5.90;;;33.70;99.90;;;;;;5027472;28;20448;-76
2021/07/03 08:29:18;;;;;;;5.33;4.80;;;33.80;99.90;;;;;;5008871;28;20498;-76
2021/07/03 08:31:47;;;;;;;7.10;5.40;;;34.00;99.90;;;;;;5010574;28;20481;-76
2021/07/03 08:34:14;;;;;;;5.47;4.97;;;34.10;99.90;;;;;;5016346;28;20549;-77
2021/07/03 08:36:41;;;;;;;5.13;4.73;;;34.30;99.90;;;;;;5017113;28;20447;-76
2021/07/03 08:39:07;;;;;;;6.30;5.60;;;34.60;99.90;;;;;;5017123;28;20762;-78
2021/07/03 08:41:37;;;;;;;5.73;5.23;;;34.70;99.90;;;;;;5008527;28;20473;-79
2021/07/03 08:44:04;;;;;;;6.20;5.60;;;35.00;99.90;;;;;;5016798;28;20457;-79
2021/07/03 08:46:31;;;;;;;6.00;5.40;;;35.20;99.90;;;;;;5010627;28;20451;-78
2021/07/03 08:49:02;;;;;;;6.30;5.00;;;35.10;99.90;;;;;;5009564;28;20455;-77
2021/07/03 08:51:29;;;;;;;5.70;5.20;;;35.10;99.90;;;;;;5018181;28;20691;-78
2021/07/03 08:53:56;;;;;;;6.53;5.80;;;35.10;99.90;;;;;;5016780;28;20454;-78
2021/07/03 08:56:23;;;;;;;5.33;4.80;;;35.10;99.90;;;;;;5014651;28;20866;-77
2021/07/03 08:58:50;;;;;;;5.77;5.27;;;35.10;99.90;;;;;;5017230;28;20941;-77
2021/07/03 09:01:17;;;;;;;5.90;5.30;;;35.10;99.90;;;;;;5013286;28;20812;-78
2021/07/03 09:03:52;;;;;;;5.70;5.20;;;35.20;99.90;;;;;;5017547;28;20460;-76
2021/07/03 09:06:30;;;;;;;5.43;4.93;;;35.10;99.90;;;;;;5017997;28;20449;-76
2021/07/03 09:08:57;;;;;;;5.90;5.27;;;34.90;99.90;;;;;;5017946;28;20536;-77
2021/07/03 09:11:24;;;;;;;6.20;5.47;;;34.90;99.90;;;;;;5020289;28;20485;-77
2021/07/03 09:13:59;;;;;;;5.23;4.83;;;34.90;99.90;;;;;;5014345;28;20454;-76
2021/07/03 09:16:31;;;;;;;6.13;5.10;;;34.80;99.90;;;;;;5029227;28;20434;-77
2021/07/03 09:18:58;;;;;;;5.33;4.83;;;34.70;99.90;;;;;;5023842;28;20537;-76
2021/07/03 09:21:26;;;;;;;6.93;5.30;;;34.60;99.90;;;;;;5011628;28;20538;-76
2021/07/03 09:23:53;;;;;;;5.87;5.37;;;34.50;99.90;;;;;;5010884;28;20932;-76
2021/07/03 09:26:20;;;;;;;4.80;4.40;;;34.10;99.90;;;;;;5013952;28;20455;-77
2021/07/03 09:28:48;;;;;;;5.47;4.97;;;34.10;99.90;;;;;;5018309;28;21137;-75
2021/07/03 09:31:17;;;;;;;5.40;4.90;;;33.70;99.90;;;;;;5008230;28;20484;-76
2021/07/03 09:33:47;;;;;;;6.83;4.93;;;33.40;99.90;;;;;;5021668;28;20455;-75
2021/07/03 09:36:22;;;;;;;5.90;5.30;;;32.90;99.90;;;;;;5013655;28;20443;-76
2021/07/03 09:38:51;;;;;;;5.90;5.40;;;32.60;99.90;;;;;;5014717;28;20485;-76
2021/07/03 09:41:20;;;;;;;5.93;5.20;;;32.20;99.90;;;;;;5027292;28;20461;-76
2021/07/03 09:43:56;;;;;;;5.47;4.97;;;31.90;99.90;;;;;;5019289;28;20943;-76
2021/07/03 09:46:23;;;;;;;5.50;5.00;;;31.30;99.90;;;;;;5023389;28;20464;-76
2021/07/03 09:48:51;;;;;;;4.83;4.43;;;30.80;99.90;;;;;;5017581;28;20461;-78
2021/07/03 09:51:18;;;;;;;6.77;6.13;;;30.20;99.90;;;;;;5027714;28;20463;-79
2021/07/03 09:53:46;;;;;;;5.63;5.13;;;29.80;99.90;;;;;;5023100;28;20474;-79
2021/07/03 09:56:15;;;;;;;5.43;4.90;;;29.70;99.90;;;;;;5011992;28;20469;-79
2021/07/03 09:58:45;;;;;;;4.93;4.43;;;29.40;99.90;;;;;;5015078;28;20485;-79
2021/07/03 10:01:12;;;;;;;5.30;4.80;;;29.10;99.90;;;;;;5010513;28;20565;-78
2021/07/03 10:03:39;;;;;;;5.50;5.00;;;28.90;99.90;;;;;;5012336;28;20463;-79
2021/07/03 10:06:08;;;;;;;5.53;4.77;;;28.70;99.90;;;;;;5008856;28;20435;-78
2021/07/03 10:08:40;;;;;;;7.00;4.73;;;28.60;99.90;;;;;;5005504;28;20458;-79
2021/07/03 10:11:10;;;;;;;8.33;4.90;;;28.30;99.90;;;;;;5011963;28;20459;-77
2021/07/03 10:13:41;;;;;;;5.40;4.50;;;28.20;99.90;;;;;;5014402;28;20451;-79
2021/07/03 10:16:09;;;;;;;5.27;4.77;;;28.00;99.90;;;;;;5012396;28;20450;-78
2021/07/03 10:18:37;;;;;;;5.10;4.60;;;27.80;99.90;;;;;;5011704;28;20559;-78
2021/07/03 10:21:14;;;;;;;4.50;4.13;;;27.60;99.90;;;;;;5016067;28;20461;-79
2021/07/03 10:23:44;;;;;;;5.40;3.90;;;27.60;99.90;;;;;;5009659;28;20522;-79
2021/07/03 10:26:12;;;;;;;4.60;4.20;;;27.40;99.90;;;;;;5010522;28;20467;-78
2021/07/03 10:28:49;;;;;;;4.87;4.27;;;27.30;99.90;;;;;;5008344;28;20431;-78
2021/07/03 10:31:17;;;;;;;5.07;4.67;;;27.20;99.90;;;;;;5020669;28;20480;-78
2021/07/03 10:33:46;;;;;;;4.70;4.30;;;27.20;99.90;;;;;;5022350;28;20446;-79
2021/07/03 10:36:29;;;;;;;5.30;4.90;;;27.10;99.90;;;;;;5014021;28;20450;-77
2021/07/03 10:38:57;;;;;;;4.50;4.10;;;26.90;99.90;;;;;;5010237;28;20480;-79
2021/07/03 10:41:26;;;;;;;5.80;4.97;;;26.70;99.90;;;;;;5010544;28;20483;-78
2021/07/03 10:43:59;;;;;;;5.10;4.63;;;26.70;99.90;;;;;;5008545;28;20445;-78
2021/07/03 10:46:27;;;;;;;5.80;5.20;;;26.60;99.90;;;;;;5007468;28;20457;-79
2021/07/03 10:48:56;;;;;;;4.90;4.50;;;26.50;99.90;;;;;;5014407;28;20462;-80
2021/07/03 10:51:31;;;;;;;5.00;4.60;;;26.60;99.90;;;;;;5013657;28;20471;-80
2021/07/03 10:54:09;;;;;;;4.93;4.53;;;26.50;99.90;;;;;;5026158;28;20440;-80
2021/07/03 10:56:41;;;;;;;4.97;4.47;;;26.40;99.90;;;;;;5023760;28;20461;-80
2021/07/03 10:59:12;;;;;;;4.70;4.30;;;26.40;99.90;;;;;;5024690;28;20484;-80
2021/07/03 11:01:44;;;;;;;4.17;3.77;;;26.30;99.90;;;;;;5026004;28;20505;-80
2021/07/03 11:04:14;;;;;;;5.17;4.67;;;26.20;99.90;;;;;;5010020;28;20545;-81
2021/07/03 11:06:44;;;;;;;4.80;4.30;;;26.20;99.90;;;;;;5007933;28;20446;-79
2021/07/03 11:09:20;;;;;;;4.63;4.23;;;26.20;99.90;;;;;;5018970;28;20462;-80
2021/07/03 11:11:47;;;;;;;4.47;4.07;;;26.20;99.90;;;;;;5011974;28;20828;-81
2021/07/03 11:14:19;;;;;;;5.10;4.27;;;26.20;99.90;;;;;;5012641;28;20489;-81
2021/07/03 11:16:50;;;;;;;4.10;3.70;;;26.10;99.90;;;;;;5024871;28;20478;-79
2021/07/03 11:19:22;;;;;;;4.30;3.90;;;26.10;99.90;;;;;;5025491;28;20489;-81
2021/07/03 11:21:49;;;;;;;3.90;3.47;;;26.10;99.90;;;;;;5011672;28;20487;-81
2021/07/03 11:24:16;;;;;;;4.20;3.80;;;26.00;99.90;;;;;;5021268;28;20458;-80
2021/07/03 11:26:43;;;;;;;4.50;4.10;;;26.00;99.90;;;;;;5023430;28;20446;-79
2021/07/03 11:29:10;;;;;;;4.30;3.90;;;26.00;99.90;;;;;;5027402;28;20497;-79
2021/07/03 11:31:38;;;;;;;3.70;3.40;;;26.00;99.90;;;;;;5024747;28;20485;-79
2021/07/03 11:34:05;;;;;;;4.10;3.70;;;26.10;99.90;;;;;;5010865;28;20455;-80
2021/07/03 11:36:32;;;;;;;5.10;4.20;;;26.10;99.90;;;;;;5020370;28;20959;-78
2021/07/03 11:39:00;;;;;;;3.93;3.53;;;26.20;99.90;;;;;;5015882;28;20501;-79
2021/07/03 11:41:29;;;;;;;5.37;4.70;;;26.10;99.90;;;;;;5023111;28;20489;-80
2021/07/03 11:44:01;;;;;;;4.57;4.17;;;26.10;99.90;;;;;;5024063;28;20857;-80
2021/07/03 11:46:28;;;;;;;4.50;4.10;;;26.10;99.90;;;;;;5014347;28;21188;-80
2021/07/03 11:48:56;;;;;;;4.90;4.50;;;26.20;99.90;;;;;;5009420;28;20451;-80
2021/07/03 11:51:23;;;;;;;5.00;4.10;;;26.20;99.90;;;;;;5021993;28;20470;-80
2021/07/03 11:53:53;;;;;;;6.53;4.70;;;26.20;99.90;;;;;;5017070;28;21001;-81
2021/07/03 11:56:21;;;;;;;5.00;4.53;;;26.30;99.90;;;;;;5007601;28;20442;-81
2021/07/03 11:58:50;;;;;;;5.00;3.70;;;26.20;99.90;;;;;;5012799;28;20838;-81
2021/07/03 12:01:19;;;;;;;4.70;4.20;;;26.30;99.90;;;;;;5017473;28;21133;-81
2021/07/03 12:03:48;;;;;;;5.77;4.40;;;26.30;99.90;;;;;;5015402;28;20487;-81
2021/07/03 12:06:21;;;;;;;4.10;3.80;;;26.30;99.90;;;;;;5025265;28;20476;-81
2021/07/03 12:08:49;;;;;;;4.57;4.00;;;26.40;99.90;;;;;;5027197;28;20460;-81
2021/07/03 12:11:19;;;;;;;5.07;4.67;;;26.40;99.90;;;;;;5016450;28;20609;-81
2021/07/03 12:13:48;;;;;;;4.43;3.90;;;26.40;99.90;;;;;;5014990;28;20470;-80
2021/07/03 12:16:17;;;;;;;5.10;3.97;;;26.40;99.90;;;;;;5012389;28;20839;-82
2021/07/03 12:18:45;;;;;;;4.13;3.73;;;26.50;99.90;;;;;;5016032;28;20489;-81
2021/07/03 12:21:14;;;;;;;7.43;4.30;;;26.50;99.90;;;;;;5011042;28;20462;-80
2021/07/03 12:23:53;;;;;;;5.17;3.70;;;26.60;99.90;;;;;;5019452;28;20485;-80
2021/07/03 12:26:22;;;;;;;4.10;3.70;;;26.60;99.90;;;;;;5010030;28;20545;-82
2021/07/03 12:28:53;;;;;;;4.17;3.80;;;26.70;99.90;;;;;;5019488;28;20464;-81
2021/07/03 12:31:24;;;;;;;4.13;3.73;;;26.80;99.90;;;;;;5014119;28;20482;-81
2021/07/03 12:34:02;;;;;;;4.47;3.63;;;26.80;99.90;;;;;;5028347;28;20541;-82
2021/07/03 12:36:30;;;;;;;4.53;4.13;;;26.80;99.90;;;;;;5025376;28;20450;-82
2021/07/03 12:39:07;;;;;;;3.97;3.67;;;26.80;99.90;;;;;;5023556;28;20489;-82
2021/07/03 12:41:54;;;;;;;3.30;3.10;;;26.80;99.90;;;;;;5021944;28;20484;-81
2021/07/03 12:44:32;;;;;;;4.40;3.97;;;26.90;99.90;;;;;;4994276;28;20440;-81